Time;durP1;ratioP1;P1;durP2;ratioP2;P2;SDS_P1;SDS_P2;PMS_P1;PMS_P2;Temp;Humidity;BMP_temperature;BMP_pressure;BME280_temperature;BME280_humidity;BME280_pressure;Samples;Min_cycle;Max_cycle;Signal;HPM_P1;HPM_P2
2024/01/19 00:01:22;;;;;;;1999.90;999.90;;;;;;;;;;5082311;28;20194;-68
2024/01/19 00:03:50;;;;;;;1999.90;999.90;;;;;;;;;;5084021;28;20190;-71
2024/01/19 00:06:17;;;;;;;1999.90;999.90;;;;;;;;;;5077319;28;20311;-66
2024/01/19 00:08:44;;;;;;;1999.90;999.90;;;;;;;;;;5085036;28;20277;-66
2024/01/19 00:11:15;;;;;;;1999.90;999.90;;;;;;;;;;5084847;28;20206;-70
2024/01/19 00:13:44;;;;;;;1999.90;999.90;;;;;;;;;;5082818;28;20641;-66
2024/01/19 00:16:11;;;;;;;1999.90;999.90;;;;;;;;;;5085744;28;20220;-67
2024/01/19 00:18:38;;;;;;;1999.90;999.90;;;;;;;;;;5084851;28;20203;-65
2024/01/19 00:21:06;;;;;;;1999.90;999.90;;;;;;;;;;5073010;28;20195;-66
2024/01/19 00:23:33;;;;;;;1999.90;999.90;;;;;;;;;;5085036;28;20189;-66
2024/01/19 00:26:01;;;;;;;1999.90;999.90;;;;;;;;;;5085159;28;20238;-67
2024/01/19 00:28:29;;;;;;;1999.90;999.90;;;;;;;;;;5085458;28;20190;-67
2024/01/19 00:30:58;;;;;;;1999.90;999.90;;;;;;;;;;5084547;28;20195;-71
2024/01/19 00:33:25;;;;;;;1999.90;999.90;;;;;;;;;;5065955;28;20599;-67
2024/01/19 00:35:53;;;;;;;1999.90;999.90;;;;;;;;;;5079463;28;20236;-68
2024/01/19 00:38:20;;;;;;;1999.90;999.90;;;;;;;;;;5084599;28;20205;-66
2024/01/19 00:40:47;;;;;;;1999.90;999.90;;;;;;;;;;5086518;28;20198;-63
2024/01/19 00:43:15;;;;;;;1999.90;999.90;;;;;;;;;;5085547;28;20540;-66
2024/01/19 00:45:42;;;;;;;1999.90;999.90;;;;;;;;;;5068902;28;20215;-62
2024/01/19 00:48:11;;;;;;;1999.90;999.90;;;;;;;;;;5085387;28;20216;-68
2024/01/19 00:50:38;;;;;;;1999.90;999.90;;;;;;;;;;5067592;28;20191;-67
2024/01/19 00:53:05;;;;;;;1999.90;999.90;;;;;;;;;;5086545;28;20519;-65
2024/01/19 00:55:32;;;;;;;1999.90;999.90;;;;;;;;;;5084938;28;20206;-63
2024/01/19 00:58:00;;;;;;;1999.90;999.90;;;;;;;;;;5086553;28;20202;-68
2024/01/19 01:00:27;;;;;;;1999.90;999.90;;;;;;;;;;5084681;28;20287;-69
2024/01/19 01:02:57;;;;;;;1999.90;999.90;;;;;;;;;;5086137;28;20206;-67
2024/01/19 01:05:25;;;;;;;1999.90;999.90;;;;;;;;;;5084613;28;20657;-66
2024/01/19 01:07:53;;;;;;;1999.90;999.90;;;;;;;;;;5086595;28;20191;-63
2024/01/19 01:10:20;;;;;;;1999.90;999.90;;;;;;;;;;5085340;28;20197;-65
2024/01/19 01:12:48;;;;;;;1999.90;999.90;;;;;;;;;;5085720;28;20403;-61
2024/01/19 01:15:15;;;;;;;1999.90;999.90;;;;;;;;;;5085265;28;20650;-64
2024/01/19 01:17:43;;;;;;;1999.90;999.90;;;;;;;;;;5085490;28;20198;-61
2024/01/19 01:20:15;;;;;;;1999.90;999.90;;;;;;;;;;5085545;28;20778;-61
2024/01/19 01:22:44;;;;;;;1999.90;999.90;;;;;;;;;;5085460;28;20505;-61
2024/01/19 01:25:11;;;;;;;1999.90;999.90;;;;;;;;;;5085202;28;20696;-62
2024/01/19 01:27:39;;;;;;;1999.90;999.90;;;;;;;;;;5085121;28;20668;-63
2024/01/19 01:30:08;;;;;;;1999.90;999.90;;;;;;;;;;5082796;28;20273;-68
2024/01/19 01:32:36;;;;;;;1999.90;999.90;;;;;;;;;;5087470;28;20194;-70
2024/01/19 01:35:03;;;;;;;1999.90;999.90;;;;;;;;;;5081200;28;20195;-70
2024/01/19 01:37:30;;;;;;;1999.90;999.90;;;;;;;;;;5087114;28;20223;-68
2024/01/19 01:39:59;;;;;;;1999.90;999.90;;;;;;;;;;5085247;28;20190;-69
2024/01/19 01:42:26;;;;;;;1999.90;999.90;;;;;;;;;;5087223;28;20191;-63
2024/01/19 01:44:54;;;;;;;1999.90;999.90;;;;;;;;;;5084782;28;20196;-71
2024/01/19 01:47:21;;;;;;;1999.90;999.90;;;;;;;;;;5084440;28;20236;-68
2024/01/19 01:49:48;;;;;;;1999.90;999.90;;;;;;;;;;5083139;28;20548;-71
2024/01/19 01:52:16;;;;;;;1999.90;999.90;;;;;;;;;;5085078;28;20641;-71
2024/01/19 01:54:43;;;;;;;1999.90;999.90;;;;;;;;;;5084614;28;20195;-68
2024/01/19 01:57:12;;;;;;;1999.90;999.90;;;;;;;;;;5083894;28;20200;-69
2024/01/19 01:59:39;;;;;;;1999.90;999.90;;;;;;;;;;5084161;28;20685;-64
2024/01/19 02:02:07;;;;;;;1999.90;999.90;;;;;;;;;;5084273;28;20195;-71
2024/01/19 02:04:34;;;;;;;1999.90;999.90;;;;;;;;;;5084377;28;20658;-71
2024/01/19 02:07:02;;;;;;;1999.90;999.90;;;;;;;;;;5083853;28;20593;-70
2024/01/19 02:09:29;;;;;;;1999.90;999.90;;;;;;;;;;5084976;28;20199;-68
2024/01/19 02:11:57;;;;;;;1999.90;999.90;;;;;;;;;;5084792;28;20274;-70
2024/01/19 02:14:25;;;;;;;1999.90;999.90;;;;;;;;;;5083781;28;20193;-66
2024/01/19 02:16:53;;;;;;;1999.90;999.90;;;;;;;;;;5083874;28;20504;-70
2024/01/19 02:19:20;;;;;;;1999.90;999.90;;;;;;;;;;5082603;28;20208;-70
2024/01/19 02:21:48;;;;;;;1999.90;999.90;;;;;;;;;;5084440;28;20278;-70
2024/01/19 02:24:19;;;;;;;1999.90;999.90;;;;;;;;;;5083971;28;20195;-70
2024/01/19 02:26:46;;;;;;;1999.90;999.90;;;;;;;;;;5082701;28;20664;-70
2024/01/19 02:29:14;;;;;;;1999.90;999.90;;;;;;;;;;5082989;28;20699;-70
2024/01/19 02:31:41;;;;;;;1999.90;999.90;;;;;;;;;;5081868;28;20731;-69
2024/01/19 02:34:08;;;;;;;1999.90;999.90;;;;;;;;;;5084290;28;20199;-70
2024/01/19 02:36:36;;;;;;;1999.90;999.90;;;;;;;;;;5078307;28;20228;-69
2024/01/19 02:39:04;;;;;;;1999.90;999.90;;;;;;;;;;5077280;28;20972;-70
2024/01/19 02:41:33;;;;;;;1999.90;999.90;;;;;;;;;;5083791;28;20280;-70
2024/01/19 02:44:00;;;;;;;1999.90;999.90;;;;;;;;;;5084249;28;20649;-71
2024/01/19 02:46:28;;;;;;;1999.90;999.90;;;;;;;;;;5069605;28;20241;-71
2024/01/19 02:48:55;;;;;;;1999.90;999.90;;;;;;;;;;5082554;28;20550;-67
2024/01/19 02:51:22;;;;;;;1999.90;999.90;;;;;;;;;;5081862;28;20199;-70
2024/01/19 02:53:50;;;;;;;1999.90;999.90;;;;;;;;;;5082976;28;20192;-70
2024/01/19 02:56:18;;;;;;;1999.90;999.90;;;;;;;;;;5082371;28;20206;-66
2024/01/19 02:58:47;;;;;;;1999.90;999.90;;;;;;;;;;5083328;28;20192;-70
2024/01/19 03:01:14;;;;;;;1999.90;999.90;;;;;;;;;;5083791;28;20812;-70
2024/01/19 03:03:42;;;;;;;1999.90;999.90;;;;;;;;;;5082401;28;20724;-71
2024/01/19 03:06:09;;;;;;;1999.90;999.90;;;;;;;;;;5082780;28;20231;-69
2024/01/19 03:08:36;;;;;;;1999.90;999.90;;;;;;;;;;5083185;28;20215;-68
2024/01/19 03:11:03;;;;;;;1999.90;999.90;;;;;;;;;;5083854;28;20199;-69
2024/01/19 03:13:31;;;;;;;1999.90;999.90;;;;;;;;;;5084542;28;20199;-71
2024/01/19 03:16:00;;;;;;;1999.90;999.90;;;;;;;;;;5083600;28;20191;-71
2024/01/19 03:18:27;;;;;;;1999.90;999.90;;;;;;;;;;5082482;28;20226;-71
2024/01/19 03:20:54;;;;;;;1999.90;999.90;;;;;;;;;;5083242;28;20994;-70
2024/01/19 03:23:22;;;;;;;1999.90;999.90;;;;;;;;;;5083454;28;20208;-69
2024/01/19 03:25:49;;;;;;;1999.90;999.90;;;;;;;;;;5083101;28;20202;-70
2024/01/19 03:28:16;;;;;;;1999.90;999.90;;;;;;;;;;5083731;28;20198;-68
2024/01/19 03:30:44;;;;;;;1999.90;999.90;;;;;;;;;;5083330;28;20226;-71
2024/01/19 03:33:12;;;;;;;1999.90;999.90;;;;;;;;;;5081797;28;20569;-71
2024/01/19 03:35:40;;;;;;;1999.90;999.90;;;;;;;;;;5083577;28;20191;-69
2024/01/19 03:38:07;;;;;;;1999.90;999.90;;;;;;;;;;5078694;28;20307;-71
2024/01/19 03:40:34;;;;;;;1999.90;999.90;;;;;;;;;;5077567;28;20203;-70
2024/01/19 03:43:03;;;;;;;1999.90;999.90;;;;;;;;;;5083018;28;20183;-71
2024/01/19 03:45:31;;;;;;;1999.90;999.90;;;;;;;;;;5081829;28;20303;-71
2024/01/19 03:47:58;;;;;;;1999.90;999.90;;;;;;;;;;5082526;28;20211;-70
2024/01/19 03:50:26;;;;;;;1999.90;999.90;;;;;;;;;;5083022;28;20222;-67
2024/01/19 03:52:54;;;;;;;1999.90;999.90;;;;;;;;;;5071268;28;20192;-69
2024/01/19 03:55:21;;;;;;;1999.90;999.90;;;;;;;;;;5071418;28;20313;-70
2024/01/19 03:57:48;;;;;;;1999.90;999.90;;;;;;;;;;5083807;28;20198;-71
2024/01/19 04:00:16;;;;;;;1999.90;999.90;;;;;;;;;;5083483;28;20641;-70
2024/01/19 04:02:43;;;;;;;1999.90;999.90;;;;;;;;;;5082364;28;20203;-71
2024/01/19 04:05:10;;;;;;;1999.90;999.90;;;;;;;;;;5081927;28;20202;-70
2024/01/19 04:07:39;;;;;;;1999.90;999.90;;;;;;;;;;5082397;28;20581;-68
2024/01/19 04:10:07;;;;;;;1999.90;999.90;;;;;;;;;;5070958;28;20199;-70
2024/01/19 04:12:34;;;;;;;1999.90;999.90;;;;;;;;;;5083190;28;20222;-69
2024/01/19 04:15:02;;;;;;;1999.90;999.90;;;;;;;;;;5086026;28;20192;-71
2024/01/19 04:17:30;;;;;;;1999.90;999.90;;;;;;;;;;5087470;28;20670;-71
2024/01/19 04:19:57;;;;;;;1999.90;999.90;;;;;;;;;;5085915;28;20198;-67
2024/01/19 04:22:25;;;;;;;1999.90;999.90;;;;;;;;;;5087301;28;20704;-70
2024/01/19 04:24:54;;;;;;;1999.90;999.90;;;;;;;;;;5085300;28;20208;-70
2024/01/19 04:27:21;;;;;;;1999.90;999.90;;;;;;;;;;5086919;28;20241;-67
2024/01/19 04:29:49;;;;;;;1999.90;999.90;;;;;;;;;;5085392;28;20190;-70
2024/01/19 04:32:16;;;;;;;1999.90;999.90;;;;;;;;;;5076340;28;20356;-70
2024/01/19 04:34:43;;;;;;;1999.90;999.90;;;;;;;;;;5081757;28;20188;-71
2024/01/19 04:37:10;;;;;;;1999.90;999.90;;;;;;;;;;5078560;28;20230;-71
2024/01/19 04:39:38;;;;;;;1999.90;999.90;;;;;;;;;;5085527;28;20935;-67
2024/01/19 04:42:07;;;;;;;1999.90;999.90;;;;;;;;;;5083801;28;20210;-70
2024/01/19 04:44:35;;;;;;;1999.90;999.90;;;;;;;;;;5085663;28;20195;-70
2024/01/19 04:47:03;;;;;;;1999.90;999.90;;;;;;;;;;5085598;28;20230;-71
2024/01/19 04:49:30;;;;;;;1999.90;999.90;;;;;;;;;;5079957;28;20278;-70
2024/01/19 04:51:57;;;;;;;1999.90;999.90;;;;;;;;;;5066553;28;20215;-71
2024/01/19 04:54:25;;;;;;;1999.90;999.90;;;;;;;;;;5081106;28;20199;-71
2024/01/19 04:56:52;;;;;;;1999.90;999.90;;;;;;;;;;5079605;28;20220;-70
2024/01/19 04:59:21;;;;;;;1999.90;999.90;;;;;;;;;;5085759;28;20265;-69
2024/01/19 05:01:48;;;;;;;1999.90;999.90;;;;;;;;;;5085767;28;20297;-66
2024/01/19 05:04:16;;;;;;;1999.90;999.90;;;;;;;;;;5085670;28;20196;-70
2024/01/19 05:06:43;;;;;;;1999.90;999.90;;;;;;;;;;5086496;28;20515;-69
2024/01/19 05:09:10;;;;;;;1999.90;999.90;;;;;;;;;;5085687;28;20200;-69
2024/01/19 05:11:37;;;;;;;1999.90;999.90;;;;;;;;;;5086379;28;20224;-71
2024/01/19 05:14:06;;;;;;;1999.90;999.90;;;;;;;;;;5076969;28;20187;-70
2024/01/19 05:16:34;;;;;;;1999.90;999.90;;;;;;;;;;5080386;28;20231;-71
2024/01/19 05:19:02;;;;;;;1999.90;999.90;;;;;;;;;;5085146;28;20839;-71
2024/01/19 05:21:29;;;;;;;1999.90;999.90;;;;;;;;;;5083717;28;20195;-69
2024/01/19 05:23:56;;;;;;;1999.90;999.90;;;;;;;;;;5075979;28;20196;-68
2024/01/19 05:26:26;;;;;;;1999.90;999.90;;;;;;;;;;5071651;28;20226;-66
2024/01/19 05:28:55;;;;;;;1999.90;999.90;;;;;;;;;;5055752;28;20267;-67
2024/01/19 05:31:22;;;;;;;1999.90;999.90;;;;;;;;;;5057163;28;20195;-68
2024/01/19 05:33:51;;;;;;;1999.90;999.90;;;;;;;;;;5055790;28;20195;-69
2024/01/19 05:36:20;;;;;;;1999.90;999.90;;;;;;;;;;5055371;28;20231;-69
2024/01/19 05:38:47;;;;;;;1999.90;999.90;;;;;;;;;;5054674;28;20256;-71
2024/01/19 05:41:19;;;;;;;1999.90;999.90;;;;;;;;;;5053652;28;20411;-68
2024/01/19 05:43:48;;;;;;;1999.90;999.90;;;;;;;;;;5055728;28;20202;-70
2024/01/19 05:46:15;;;;;;;1999.90;999.90;;;;;;;;;;5051993;28;20209;-70
2024/01/19 05:48:42;;;;;;;1999.90;999.90;;;;;;;;;;5055512;28;21492;-71
2024/01/19 05:51:15;;;;;;;1999.90;999.90;;;;;;;;;;5054167;28;20195;-69
2024/01/19 05:53:42;;;;;;;1999.90;999.90;;;;;;;;;;5054544;28;20203;-70
2024/01/19 05:56:09;;;;;;;1999.90;999.90;;;;;;;;;;5054560;28;20200;-68
2024/01/19 05:58:37;;;;;;;1999.90;999.90;;;;;;;;;;5053866;28;20205;-65
2024/01/19 06:01:05;;;;;;;1999.90;999.90;;;;;;;;;;5052888;28;20207;-70
2024/01/19 06:03:33;;;;;;;1999.90;999.90;;;;;;;;;;5054988;28;20287;-72
2024/01/19 06:06:01;;;;;;;1999.90;999.90;;;;;;;;;;5052404;28;20864;-67
2024/01/19 06:08:30;;;;;;;1999.90;999.90;;;;;;;;;;5051913;28;20222;-67
2024/01/19 06:10:57;;;;;;;1999.90;999.90;;;;;;;;;;5055451;28;20207;-68
2024/01/19 06:13:25;;;;;;;1999.90;999.90;;;;;;;;;;5053807;28;20203;-70
2024/01/19 06:15:52;;;;;;;1999.90;999.90;;;;;;;;;;5054152;28;20215;-69
2024/01/19 06:18:19;;;;;;;1999.90;999.90;;;;;;;;;;5051770;28;21354;-62
2024/01/19 06:20:48;;;;;;;1999.90;999.90;;;;;;;;;;5055916;28;20192;-71
2024/01/19 06:23:15;;;;;;;1999.90;999.90;;;;;;;;;;5054519;28;20203;-71
2024/01/19 06:25:44;;;;;;;1999.90;999.90;;;;;;;;;;5053565;28;20215;-70
2024/01/19 06:28:12;;;;;;;1999.90;999.90;;;;;;;;;;5062669;28;20299;-69
2024/01/19 06:30:42;;;;;;;1999.90;999.90;;;;;;;;;;5071963;28;20195;-69
2024/01/19 06:33:09;;;;;;;1999.90;999.90;;;;;;;;;;5075603;28;20223;-68
2024/01/19 06:35:37;;;;;;;1999.90;999.90;;;;;;;;;;5053666;28;20256;-66
2024/01/19 06:38:05;;;;;;;1999.90;999.90;;;;;;;;;;5054826;28;20231;-63
2024/01/19 06:40:32;;;;;;;1999.90;999.90;;;;;;;;;;5054907;28;20275;-71
2024/01/19 06:43:02;;;;;;;1999.90;999.90;;;;;;;;;;5055060;28;20580;-65
2024/01/19 06:45:30;;;;;;;1999.90;999.90;;;;;;;;;;5053404;28;20218;-70
2024/01/19 06:47:57;;;;;;;1999.90;999.90;;;;;;;;;;5052099;28;20226;-71
2024/01/19 06:50:24;;;;;;;1999.90;999.90;;;;;;;;;;5055878;28;20545;-69
2024/01/19 06:52:52;;;;;;;1999.90;999.90;;;;;;;;;;5052795;28;20202;-70
2024/01/19 06:55:19;;;;;;;1999.90;999.90;;;;;;;;;;5053822;28;20207;-71
2024/01/19 06:57:47;;;;;;;1999.90;999.90;;;;;;;;;;5055550;28;20199;-73
2024/01/19 07:00:19;;;;;;;1999.90;999.90;;;;;;;;;;5054332;28;20197;-72
2024/01/19 07:02:46;;;;;;;1999.90;999.90;;;;;;;;;;5054681;28;20281;-71
2024/01/19 07:05:15;;;;;;;1999.90;999.90;;;;;;;;;;5054618;28;20550;-72
2024/01/19 07:07:42;;;;;;;1999.90;999.90;;;;;;;;;;5054347;28;20321;-71
2024/01/19 07:10:10;;;;;;;1999.90;999.90;;;;;;;;;;5060154;28;20650;-72
2024/01/19 07:12:37;;;;;;;1999.90;999.90;;;;;;;;;;5078040;28;20206;-71
2024/01/19 07:15:06;;;;;;;1999.90;999.90;;;;;;;;;;5073233;28;20199;-64
2024/01/19 07:17:34;;;;;;;1999.90;999.90;;;;;;;;;;5079660;28;20661;-74
2024/01/19 07:20:05;;;;;;;1999.90;999.90;;;;;;;;;;5085027;28;20189;-73
2024/01/19 07:22:34;;;;;;;1999.90;999.90;;;;;;;;;;5084236;28;20280;-72
2024/01/19 07:25:01;;;;;;;1999.90;999.90;;;;;;;;;;5083301;28;20326;-72
2024/01/19 07:27:29;;;;;;;1999.90;999.90;;;;;;;;;;5082857;28;20218;-71
2024/01/19 07:29:56;;;;;;;1999.90;999.90;;;;;;;;;;5080535;28;20187;-72
2024/01/19 07:32:25;;;;;;;1999.90;999.90;;;;;;;;;;5075760;28;20202;-72
2024/01/19 07:34:53;;;;;;;1999.90;999.90;;;;;;;;;;5075458;28;22027;-73
2024/01/19 07:37:21;;;;;;;1999.90;999.90;;;;;;;;;;5076127;28;20222;-74
2024/01/19 07:39:48;;;;;;;1999.90;999.90;;;;;;;;;;5072535;28;20199;-67
2024/01/19 07:42:15;;;;;;;1999.90;999.90;;;;;;;;;;5072472;28;20198;-67
2024/01/19 07:44:43;;;;;;;1999.90;999.90;;;;;;;;;;5076968;28;20230;-71
2024/01/19 07:47:10;;;;;;;1999.90;999.90;;;;;;;;;;5083242;28;20194;-70
2024/01/19 07:49:37;;;;;;;1999.90;999.90;;;;;;;;;;5085886;28;20202;-71
2024/01/19 07:52:06;;;;;;;1999.90;999.90;;;;;;;;;;5087340;28;20206;-73
2024/01/19 07:54:34;;;;;;;1999.90;999.90;;;;;;;;;;5086988;28;20193;-74
2024/01/19 07:57:01;;;;;;;1999.90;999.90;;;;;;;;;;5083000;28;20195;-74
2024/01/19 07:59:28;;;;;;;1999.90;999.90;;;;;;;;;;5080158;28;20221;-72
2024/01/19 08:01:56;;;;;;;1999.90;999.90;;;;;;;;;;5084500;28;20198;-74
2024/01/19 08:04:23;;;;;;;1999.90;999.90;;;;;;;;;;5085476;28;20561;-69
2024/01/19 08:06:50;;;;;;;1999.90;999.90;;;;;;;;;;5085434;28;20199;-73
2024/01/19 08:09:19;;;;;;;1999.90;999.90;;;;;;;;;;5087196;28;20225;-67
2024/01/19 08:11:46;;;;;;;1999.90;999.90;;;;;;;;;;5087534;28;20209;-71
2024/01/19 08:14:14;;;;;;;1999.90;999.90;;;;;;;;;;5085856;28;20199;-63
2024/01/19 08:16:43;;;;;;;1999.90;999.90;;;;;;;;;;5087435;28;20210;-66
2024/01/19 08:19:11;;;;;;;1999.90;999.90;;;;;;;;;;5077552;28;20197;-69
2024/01/19 08:21:42;;;;;;;1999.90;999.90;;;;;;;;;;5087160;28;20195;-70
2024/01/19 08:24:12;;;;;;;1999.90;999.90;;;;;;;;;;5085381;28;20209;-72
2024/01/19 08:26:40;;;;;;;1999.90;999.90;;;;;;;;;;5086311;28;20199;-74
2024/01/19 08:29:08;;;;;;;1999.90;999.90;;;;;;;;;;5075715;28;20236;-74
2024/01/19 08:31:35;;;;;;;1999.90;999.90;;;;;;;;;;5086023;28;20195;-68
2024/01/19 08:34:02;;;;;;;1999.90;999.90;;;;;;;;;;5086337;28;20266;-71
2024/01/19 08:36:30;;;;;;;1999.90;999.90;;;;;;;;;;5081483;28;20241;-70
2024/01/19 08:38:57;;;;;;;1999.90;999.90;;;;;;;;;;5086681;28;20206;-66
2024/01/19 08:41:24;;;;;;;1999.90;999.90;;;;;;;;;;5085286;28;20282;-72
2024/01/19 08:43:53;;;;;;;1999.90;999.90;;;;;;;;;;5086506;28;20214;-70
2024/01/19 08:46:20;;;;;;;1999.90;999.90;;;;;;;;;;5080918;28;20186;-67
2024/01/19 08:48:48;;;;;;;1999.90;999.90;;;;;;;;;;5081952;28;20230;-68
2024/01/19 08:51:21;;;;;;;1999.90;999.90;;;;;;;;;;5084836;28;20191;-66
2024/01/19 08:53:49;;;;;;;1999.90;999.90;;;;;;;;;;5084997;28;20233;-70
2024/01/19 08:56:20;;;;;;;1999.90;999.90;;;;;;;;;;5082548;28;20194;-71
2024/01/19 08:58:48;;;;;;;1999.90;999.90;;;;;;;;;;5083485;28;20281;-69
2024/01/19 09:01:18;;;;;;;1999.90;999.90;;;;;;;;;;5085100;28;20859;-71
2024/01/19 09:03:46;;;;;;;1999.90;999.90;;;;;;;;;;5084044;28;20191;-70
2024/01/19 09:06:13;;;;;;;1999.90;999.90;;;;;;;;;;5086091;28;20209;-72
2024/01/19 09:08:42;;;;;;;1999.90;999.90;;;;;;;;;;5085784;28;20222;-71
2024/01/19 09:11:09;;;;;;;1999.90;999.90;;;;;;;;;;5085440;28;20788;-71
2024/01/19 09:13:38;;;;;;;1999.90;999.90;;;;;;;;;;5073602;28;20191;-70
2024/01/19 09:16:07;;;;;;;1999.90;999.90;;;;;;;;;;5084038;28;20565;-70
2024/01/19 09:18:35;;;;;;;1999.90;999.90;;;;;;;;;;5084994;28;20202;-71
2024/01/19 09:21:03;;;;;;;1999.90;999.90;;;;;;;;;;5085482;28;20199;-65
2024/01/19 09:23:30;;;;;;;1999.90;999.90;;;;;;;;;;5085224;28;20195;-70
2024/01/19 09:25:57;;;;;;;1999.90;999.90;;;;;;;;;;5086194;28;20191;-68
2024/01/19 09:28:25;;;;;;;1999.90;999.90;;;;;;;;;;5084539;28;20222;-64
2024/01/19 09:30:52;;;;;;;1999.90;999.90;;;;;;;;;;5085847;28;20318;-68
2024/01/19 09:33:20;;;;;;;1999.90;999.90;;;;;;;;;;5083234;28;20222;-67
2024/01/19 09:35:48;;;;;;;1999.90;999.90;;;;;;;;;;5079280;28;20297;-68
2024/01/19 09:38:16;;;;;;;1999.90;999.90;;;;;;;;;;5085175;28;20236;-70
2024/01/19 09:40:45;;;;;;;1999.90;999.90;;;;;;;;;;5084901;28;20200;-73
2024/01/19 09:43:13;;;;;;;1999.90;999.90;;;;;;;;;;5085339;28;20659;-70
2024/01/19 09:45:42;;;;;;;1999.90;999.90;;;;;;;;;;5084002;28;20219;-70
2024/01/19 09:48:16;;;;;;;1999.90;999.90;;;;;;;;;;5085221;28;20225;-71
2024/01/19 09:50:47;;;;;;;1999.90;999.90;;;;;;;;;;5083893;28;20226;-72
2024/01/19 09:53:17;;;;;;;1999.90;999.90;;;;;;;;;;5085992;28;20197;-73
2024/01/19 09:55:48;;;;;;;1999.90;999.90;;;;;;;;;;5084307;28;20240;-72
2024/01/19 09:58:15;;;;;;;1999.90;999.90;;;;;;;;;;5085291;28;20189;-72
2024/01/19 10:00:43;;;;;;;1999.90;999.90;;;;;;;;;;5084578;28;20207;-71
2024/01/19 10:03:11;;;;;;;1999.90;999.90;;;;;;;;;;5083093;28;20624;-68
2024/01/19 10:05:38;;;;;;;1999.90;999.90;;;;;;;;;;5066268;28;20194;-69
2024/01/19 10:08:06;;;;;;;1999.90;999.90;;;;;;;;;;5064538;28;20230;-68
2024/01/19 10:10:34;;;;;;;1999.90;999.90;;;;;;;;;;5083539;28;20201;-70
2024/01/19 10:13:02;;;;;;;1999.90;999.90;;;;;;;;;;5083955;28;20213;-65
2024/01/19 10:15:31;;;;;;;1999.90;999.90;;;;;;;;;;5084535;28;20240;-71
2024/01/19 10:17:59;;;;;;;1999.90;999.90;;;;;;;;;;5085055;28;20194;-71
2024/01/19 10:20:26;;;;;;;1999.90;999.90;;;;;;;;;;5083109;28;20564;-71
2024/01/19 10:22:54;;;;;;;1999.90;999.90;;;;;;;;;;5084694;28;20774;-67
2024/01/19 10:25:21;;;;;;;1999.90;999.90;;;;;;;;;;5071031;28;20206;-71
2024/01/19 10:27:51;;;;;;;1999.90;999.90;;;;;;;;;;5084118;28;20195;-73
2024/01/19 10:30:19;;;;;;;1999.90;999.90;;;;;;;;;;5083252;28;20195;-73
2024/01/19 10:32:48;;;;;;;1999.90;999.90;;;;;;;;;;5083740;28;20228;-73
2024/01/19 10:35:16;;;;;;;1999.90;999.90;;;;;;;;;;5084046;28;20197;-71
2024/01/19 10:37:44;;;;;;;1999.90;999.90;;;;;;;;;;5083103;28;20238;-72
2024/01/19 10:40:15;;;;;;;1999.90;999.90;;;;;;;;;;5085544;28;20657;-75
2024/01/19 10:42:43;;;;;;;1999.90;999.90;;;;;;;;;;5083817;28;20283;-74
2024/01/19 10:45:19;;;;;;;1999.90;999.90;;;;;;;;;;5073480;28;20234;-73
2024/01/19 10:47:47;;;;;;;1999.90;999.90;;;;;;;;;;5080855;28;20281;-71
2024/01/19 10:50:14;;;;;;;1999.90;999.90;;;;;;;;;;5083250;28;20317;-72
2024/01/19 10:52:43;;;;;;;1999.90;999.90;;;;;;;;;;5083560;28;20194;-71
2024/01/19 10:55:11;;;;;;;1999.90;999.90;;;;;;;;;;5082470;28;20197;-72
2024/01/19 10:57:38;;;;;;;1999.90;999.90;;;;;;;;;;5083335;28;20216;-73
2024/01/19 11:00:23;;;;;;;1999.90;999.90;;;;;;;;;;5083186;28;20194;-71
2024/01/19 11:02:53;;;;;;;1999.90;999.90;;;;;;;;;;5066930;28;20193;-72
2024/01/19 11:05:21;;;;;;;1999.90;999.90;;;;;;;;;;5080385;28;20198;-74
2024/01/19 11:07:49;;;;;;;1999.90;999.90;;;;;;;;;;5082464;28;20549;-68
2024/01/19 11:10:17;;;;;;;1999.90;999.90;;;;;;;;;;5084264;28;20300;-66
2024/01/19 11:12:48;;;;;;;1999.90;999.90;;;;;;;;;;5083311;28;20199;-73
2024/01/19 11:15:21;;;;;;;1999.90;999.90;;;;;;;;;;5083837;28;20243;-71
2024/01/19 11:17:48;;;;;;;1999.90;999.90;;;;;;;;;;5080880;28;20201;-67
2024/01/19 11:20:17;;;;;;;1999.90;999.90;;;;;;;;;;5084087;28;20201;-67
2024/01/19 11:22:45;;;;;;;1999.90;999.90;;;;;;;;;;5083204;28;20684;-72
2024/01/19 11:25:15;;;;;;;1999.90;999.90;;;;;;;;;;5087639;28;20194;-69
2024/01/19 11:27:48;;;;;;;1999.90;999.90;;;;;;;;;;5087619;28;20642;-71
2024/01/19 11:30:18;;;;;;;1999.90;999.90;;;;;;;;;;5087780;28;20210;-71
2024/01/19 11:32:46;;;;;;;1999.90;999.90;;;;;;;;;;5087338;28;20559;-70
2024/01/19 11:35:33;;;;;;;1999.90;999.90;;;;;;;;;;5079376;28;20210;-69
2024/01/19 11:38:02;;;;;;;1999.90;999.90;;;;;;;;;;5084793;28;20616;-72
2024/01/19 11:40:48;;;;;;;1999.90;999.90;;;;;;;;;;5087581;28;20248;-70
2024/01/19 11:43:34;;;;;;;1999.90;999.90;;;;;;;;;;5073964;28;20548;-69
2024/01/19 11:46:01;;;;;;;1999.90;999.90;;;;;;;;;;5087401;28;20190;-70
2024/01/19 11:48:41;;;;;;;1999.90;999.90;;;;;;;;;;5086707;28;20290;-71
2024/01/19 11:51:09;;;;;;;1999.90;999.90;;;;;;;;;;5086512;28;20202;-72
2024/01/19 11:53:54;;;;;;;1999.90;999.90;;;;;;;;;;5086971;28;20202;-70
2024/01/19 11:56:23;;;;;;;1999.90;999.90;;;;;;;;;;5076105;28;20551;-70
2024/01/19 11:58:51;;;;;;;1999.90;999.90;;;;;;;;;;5087233;28;20224;-67
2024/01/19 12:01:18;;;;;;;1999.90;999.90;;;;;;;;;;5087185;28;20191;-67
2024/01/19 12:03:47;;;;;;;1999.90;999.90;;;;;;;;;;5087767;28;20191;-71
2024/01/19 12:06:16;;;;;;;1999.90;999.90;;;;;;;;;;5086841;28;20198;-69
2024/01/19 12:08:44;;;;;;;1999.90;999.90;;;;;;;;;;5086767;28;20227;-68
2024/01/19 12:11:11;;;;;;;1999.90;999.90;;;;;;;;;;5086655;28;20209;-71
2024/01/19 12:13:43;;;;;;;1999.90;999.90;;;;;;;;;;5086284;28;20222;-72
2024/01/19 12:16:11;;;;;;;1999.90;999.90;;;;;;;;;;5087491;28;20256;-72
2024/01/19 12:18:38;;;;;;;1999.90;999.90;;;;;;;;;;5086814;28;20196;-72
2024/01/19 12:21:06;;;;;;;1999.90;999.90;;;;;;;;;;5088089;28;20244;-71
2024/01/19 12:23:35;;;;;;;1999.90;999.90;;;;;;;;;;5066424;28;20211;-71
2024/01/19 12:26:04;;;;;;;1999.90;999.90;;;;;;;;;;5067422;28;20230;-69
2024/01/19 12:28:33;;;;;;;1999.90;999.90;;;;;;;;;;5071727;28;20199;-72
2024/01/19 12:31:02;;;;;;;1999.90;999.90;;;;;;;;;;5075250;28;20249;-73
2024/01/19 12:33:30;;;;;;;1999.90;999.90;;;;;;;;;;5087012;28;20187;-69
2024/01/19 12:36:06;;;;;;;1999.90;999.90;;;;;;;;;;5069406;28;20248;-69
2024/01/19 12:38:34;;;;;;;1999.90;999.90;;;;;;;;;;5057075;28;20551;-69
2024/01/19 12:41:03;;;;;;;1999.90;999.90;;;;;;;;;;5058374;28;20255;-66
2024/01/19 12:43:31;;;;;;;1999.90;999.90;;;;;;;;;;5056832;28;20527;-71
2024/01/19 12:46:08;;;;;;;1999.90;999.90;;;;;;;;;;5057698;28;20287;-65
2024/01/19 12:48:35;;;;;;;1999.90;999.90;;;;;;;;;;5058833;28;20176;-69
2024/01/19 12:51:04;;;;;;;1999.90;999.90;;;;;;;;;;5055805;28;20272;-72
2024/01/19 12:53:32;;;;;;;1999.90;999.90;;;;;;;;;;5056446;28;20260;-70
2024/01/19 12:55:59;;;;;;;1999.90;999.90;;;;;;;;;;5066239;28;20529;-67
2024/01/19 12:58:27;;;;;;;1999.90;999.90;;;;;;;;;;5060190;28;20207;-71
2024/01/19 13:00:54;;;;;;;1999.90;999.90;;;;;;;;;;5055101;28;20198;-63
2024/01/19 13:03:23;;;;;;;1999.90;999.90;;;;;;;;;;5054166;28;20346;-68
2024/01/19 13:05:50;;;;;;;1999.90;999.90;;;;;;;;;;5054161;28;20195;-69
2024/01/19 13:08:21;;;;;;;1999.90;999.90;;;;;;;;;;5053553;28;20199;-67
2024/01/19 13:10:48;;;;;;;1999.90;999.90;;;;;;;;;;5053781;28;20255;-68
2024/01/19 13:13:17;;;;;;;1999.90;999.90;;;;;;;;;;5052386;28;20194;-68
2024/01/19 13:15:44;;;;;;;1999.90;999.90;;;;;;;;;;5054142;28;20196;-70
2024/01/19 13:18:12;;;;;;;1999.90;999.90;;;;;;;;;;5054874;28;20205;-67
2024/01/19 13:20:41;;;;;;;1999.90;999.90;;;;;;;;;;5053867;28;20201;-69
2024/01/19 13:23:09;;;;;;;1999.90;999.90;;;;;;;;;;5055718;28;20224;-70
2024/01/19 13:25:36;;;;;;;1999.90;999.90;;;;;;;;;;5080108;28;20196;-70
2024/01/19 13:28:04;;;;;;;1999.90;999.90;;;;;;;;;;5081239;28;21098;-70
2024/01/19 13:30:32;;;;;;;1999.90;999.90;;;;;;;;;;5077713;28;20689;-66
2024/01/19 13:33:01;;;;;;;1999.90;999.90;;;;;;;;;;5053218;28;20662;-68
2024/01/19 13:35:29;;;;;;;1999.90;999.90;;;;;;;;;;5054252;28;20205;-70
2024/01/19 13:37:58;;;;;;;1999.90;999.90;;;;;;;;;;5056591;28;20589;-70
2024/01/19 13:40:26;;;;;;;1999.90;999.90;;;;;;;;;;5053486;28;20187;-70
2024/01/19 13:42:54;;;;;;;1999.90;999.90;;;;;;;;;;5050445;28;20260;-68
2024/01/19 13:45:22;;;;;;;1999.90;999.90;;;;;;;;;;5050874;28;20514;-71
2024/01/19 13:47:49;;;;;;;1999.90;999.90;;;;;;;;;;5054013;28;20297;-71